Time;durP1;ratioP1;P1;durP2;ratioP2;P2;SDS_P1;SDS_P2;PMS_P1;PMS_P2;Temp;Humidity;BMP_temperature;BMP_pressure;BME280_temperature;BME280_humidity;BME280_pressure;Samples;Min_cycle;Max_cycle;Signal;HPM_P1;HPM_P2
2022/05/24 00:00:01;;;;;;;4.35;3.95;;;;;;;11.38;52.80;99280.77;1727513;82;21243;-77
2022/05/24 00:02:28;;;;;;;8.80;4.92;;;;;;;11.38;52.77;99286.16;1727150;82;20885;-78
2022/05/24 00:04:55;;;;;;;6.70;4.17;;;;;;;11.39;52.83;99293.70;1743460;82;20933;-78
2022/05/24 00:07:21;;;;;;;7.10;4.37;;;;;;;11.39;53.08;99291.01;1739296;82;21000;-77
2022/05/24 00:09:47;;;;;;;5.97;4.00;;;;;;;11.38;52.84;99288.03;1749276;82;21044;-80
2022/05/24 00:12:15;;;;;;;4.75;4.12;;;;;;;11.37;52.61;99287.76;1714846;82;21129;-79
2022/05/24 00:17:27;;;;;;;4.90;4.25;;;;;;;11.37;52.44;99289.91;1747821;82;20909;-78
2022/05/24 00:19:54;;;;;;;8.80;4.25;;;;;;;11.37;53.03;99294.48;1741594;82;21643;-79
2022/05/24 00:22:20;;;;;;;5.47;4.67;;;;;;;11.35;53.46;99296.66;1720211;82;20982;-80
2022/05/24 00:24:46;;;;;;;9.53;4.33;;;;;;;11.32;53.65;99301.20;1721537;82;21387;-79
2022/05/24 00:27:13;;;;;;;6.90;4.85;;;;;;;11.29;53.97;99301.73;1736991;82;20964;-80
2022/05/24 00:29:39;;;;;;;4.92;4.47;;;;;;;11.24;54.29;99302.53;1741887;82;21029;-80
2022/05/24 00:32:08;;;;;;;5.87;4.25;;;;;;;11.19;54.52;99303.86;1738234;82;20988;-79
2022/05/24 00:34:34;;;;;;;5.85;4.22;;;;;;;11.11;54.44;99294.95;1739585;81;21021;-81
2022/05/24 00:37:00;;;;;;;6.25;3.40;;;;;;;11.06;55.25;99307.57;1730833;82;21155;-79
2022/05/24 00:39:27;;;;;;;8.23;4.65;;;;;;;11.02;56.17;99295.18;1735042;82;21156;-82
2022/05/24 00:41:58;;;;;;;5.85;4.50;;;;;;;10.97;56.70;99300.54;1729671;82;20893;-78
2022/05/24 00:44:30;;;;;;;4.58;3.55;;;;;;;10.93;57.69;99307.52;1724192;82;21522;-75
2022/05/24 00:47:10;;;;;;;7.30;4.20;;;;;;;10.89;57.96;99303.17;1735892;82;21032;-78
2022/05/24 00:49:44;;;;;;;8.20;4.05;;;;;;;10.86;58.68;99306.39;1738117;82;21806;-76
2022/05/24 00:52:34;;;;;;;5.40;3.85;;;;;;;10.83;59.96;99308.27;1759167;80;21450;-75
2022/05/24 00:55:00;;;;;;;6.87;4.25;;;;;;;10.77;60.38;99303.92;1708211;84;20914;-75
2022/05/24 00:57:34;;;;;;;8.75;4.65;;;;;;;10.75;60.90;99303.36;1702824;83;21128;-77
2022/05/24 01:00:12;;;;;;;5.17;4.65;;;;;;;10.74;61.10;99306.34;1707839;84;21327;-75
2022/05/24 01:02:41;;;;;;;4.70;3.87;;;;;;;10.72;61.09;99306.59;1680648;84;21844;-74
2022/05/24 01:05:11;;;;;;;7.10;4.40;;;;;;;10.69;61.45;99313.03;1667573;84;21020;-83
2022/05/24 01:07:37;;;;;;;6.70;5.15;;;;;;;10.64;61.35;99312.99;1667421;86;20940;-77
2022/05/24 01:10:08;;;;;;;5.85;5.12;;;;;;;10.61;62.02;99309.45;1694012;84;21088;-76
2022/05/24 01:12:50;;;;;;;15.85;5.25;;;;;;;10.58;63.05;99309.45;1662857;84;21139;-79
2022/05/24 01:15:16;;;;;;;9.23;5.85;;;;;;;10.55;64.50;99305.92;1693635;84;21254;-84
2022/05/24 01:17:43;;;;;;;7.90;5.30;;;;;;;10.52;65.67;99305.11;1659131;84;20952;-80
2022/05/24 01:20:10;;;;;;;8.68;5.03;;;;;;;10.47;66.17;99306.41;1688651;84;21102;-76
2022/05/24 01:23:04;;;;;;;10.08;6.50;;;;;;;10.45;66.83;99306.66;1682357;84;21087;-76
2022/05/24 01:25:40;;;;;;;;;;;;;;;10.42;67.36;99305.03;1693580;84;21025;-76
2022/05/24 01:28:20;;;;;;;12.47;6.85;;;;;;;10.39;68.55;99310.94;1685971;84;21157;-78
2022/05/24 01:30:47;;;;;;;7.90;5.83;;;;;;;10.33;69.45;99313.30;1681362;84;21012;-79
2022/05/24 01:36:10;;;;;;;8.10;5.55;;;;;;;10.26;70.83;99312.19;1693050;83;21584;-80
2022/05/24 01:38:49;;;;;;;12.68;6.58;;;;;;;10.23;71.44;99307.31;1677211;84;21584;-78
2022/05/24 01:41:20;;;;;;;9.70;7.10;;;;;;;10.21;72.40;99305.44;1668241;84;21113;-78
2022/05/24 01:43:52;;;;;;;11.80;7.53;;;;;;;10.19;73.18;99311.58;1680813;85;22359;-77
2022/05/24 01:46:22;;;;;;;13.85;8.50;;;;;;;10.18;74.03;99318.55;1702456;83;21039;-79
2022/05/24 01:48:55;;;;;;;9.30;6.60;;;;;;;10.15;74.75;99311.79;1683986;84;21066;-76
2022/05/24 01:51:30;;;;;;;11.63;7.17;;;;;;;10.16;75.38;99313.98;1689124;84;21071;-78
2022/05/24 01:53:59;;;;;;;7.60;6.95;;;;;;;10.18;76.02;99311.83;1696356;84;21537;-79
2022/05/24 01:56:45;;;;;;;7.90;6.60;;;;;;;10.19;76.71;99319.64;1698001;84;21577;-80
2022/05/24 01:59:13;;;;;;;9.90;6.60;;;;;;;10.19;76.96;99317.48;1703695;83;21095;-85
2022/05/24 02:01:46;;;;;;;9.68;7.22;;;;;;;10.15;77.17;99315.82;1691832;84;21677;-81
2022/05/24 02:04:13;;;;;;;12.13;7.12;;;;;;;10.12;77.04;99318.22;1680180;84;21126;-82
2022/05/24 02:06:40;;;;;;;9.10;6.05;;;;;;;10.10;77.32;99324.37;1694463;84;21164;-82
2022/05/24 02:09:08;;;;;;;13.32;6.58;;;;;;;10.05;77.42;99325.13;1691775;84;21121;-84
2022/05/24 02:11:36;;;;;;;14.98;6.47;;;;;;;9.99;77.18;99326.14;1672478;84;21088;-84
2022/05/24 02:14:21;;;;;;;14.95;7.00;;;;;;;9.95;77.14;99324.51;1697535;84;21051;-83
2022/05/24 02:16:56;;;;;;;13.43;7.17;;;;;;;9.91;77.17;99322.06;1696969;84;21575;-82
2022/05/24 02:19:23;;;;;;;10.35;6.55;;;;;;;9.88;77.06;99325.23;1681388;84;22243;-83
2022/05/24 02:21:55;;;;;;;13.62;6.65;;;;;;;9.85;77.04;99323.06;1686113;84;21012;-83
2022/05/24 02:24:22;;;;;;;7.45;5.42;;;;;;;9.83;77.04;99332.45;1669859;86;21176;-84
2022/05/24 02:26:50;;;;;;;7.58;5.40;;;;;;;9.81;76.94;99337.26;1669716;86;21046;-82
2022/05/24 02:29:17;;;;;;;8.58;5.83;;;;;;;9.77;76.55;99340.98;1669770;84;21084;-78
2022/05/24 02:31:44;;;;;;;11.38;5.28;;;;;;;9.75;75.24;99341.77;1680345;84;21141;-81
2022/05/24 02:34:11;;;;;;;18.57;6.05;;;;;;;9.78;74.64;99349.86;1697768;84;21039;-80
2022/05/24 02:36:38;;;;;;;6.37;5.72;;;;;;;9.77;74.01;99351.73;1695560;84;21028;-81
2022/05/24 02:39:04;;;;;;;7.47;6.15;;;;;;;9.77;73.32;99342.86;1696943;84;21492;-80
2022/05/24 02:41:36;;;;;;;4.95;4.47;;;;;;;9.77;72.84;99351.73;1697402;84;21067;-88
2022/05/24 02:44:12;;;;;;;5.87;4.83;;;;;;;9.78;72.18;99357.92;1664091;85;21237;-84
2022/05/24 02:46:43;;;;;;;10.58;5.35;;;;;;;9.78;72.22;99359.27;1683409;85;21572;-92
2022/05/24 02:49:09;;;;;;;7.25;5.45;;;;;;;9.76;72.32;99359.50;1687240;84;21522;-91
2022/05/24 02:51:39;;;;;;;8.03;5.00;;;;;;;9.75;72.37;99362.43;1687710;85;20997;-89
2022/05/24 02:54:07;;;;;;;10.90;6.00;;;;;;;9.73;72.32;99354.65;1687534;84;21060;-78
2022/05/24 02:56:34;;;;;;;6.60;5.60;;;;;;;9.73;72.16;99361.36;1679107;85;21057;-76
2022/05/24 02:59:04;;;;;;;6.55;5.28;;;;;;;9.74;71.73;99352.75;1663576;85;22298;-76
2022/05/24 03:01:32;;;;;;;10.03;6.20;;;;;;;9.73;71.64;99362.70;1659657;86;21013;-77
2022/05/24 03:03:59;;;;;;;5.28;4.78;;;;;;;9.73;71.52;99369.95;1670781;85;21104;-77
2022/05/24 03:06:28;;;;;;;10.03;5.20;;;;;;;9.72;70.74;99370.47;1660857;85;20992;-75
2022/05/24 03:14:22;;;;;;;5.55;5.03;;;;;;;9.76;69.14;99366.22;1677625;85;21021;-75
2022/05/24 03:16:50;;;;;;;5.00;4.58;;;;;;;9.79;68.25;99373.76;1677986;84;21544;-77
2022/05/24 03:19:17;;;;;;;8.40;5.67;;;;;;;9.82;67.85;99375.14;1717822;82;20976;-77
2022/05/24 03:21:43;;;;;;;8.53;4.53;;;;;;;9.86;66.57;99382.44;1712636;82;21996;-77
2022/05/24 03:24:11;;;;;;;10.45;5.03;;;;;;;9.90;65.91;99374.68;1709279;81;21664;-78
2022/05/24 03:26:37;;;;;;;5.58;4.70;;;;;;;9.97;65.36;99376.65;1713483;82;21000;-77
2022/05/24 03:29:05;;;;;;;5.60;5.10;;;;;;;10.01;65.25;99377.23;1724933;82;21045;-77
2022/05/24 03:31:32;;;;;;;5.72;4.72;;;;;;;10.07;65.38;99380.22;1735096;81;21017;-76
2022/05/24 03:34:00;;;;;;;8.13;6.03;;;;;;;10.12;65.81;99383.48;1734324;82;21140;-77
2022/05/24 03:36:28;;;;;;;12.00;5.80;;;;;;;10.18;66.77;99382.52;1732034;82;21546;-77
2022/05/24 03:38:55;;;;;;;6.17;5.22;;;;;;;10.24;67.92;99378.00;1735144;82;21005;-77
2022/05/24 03:41:22;;;;;;;9.93;6.12;;;;;;;10.31;69.46;99379.96;1724074;82;21009;-78
2022/05/24 03:43:48;;;;;;;13.35;6.83;;;;;;;10.37;72.14;99384.30;1724546;82;21548;-77
2022/05/24 03:46:15;;;;;;;10.90;7.00;;;;;;;10.42;73.52;99380.30;1735310;82;21141;-77
2022/05/24 03:48:42;;;;;;;11.05;7.28;;;;;;;10.50;75.37;99381.20;1720203;82;21518;-83
2022/05/24 03:51:10;;;;;;;16.82;8.13;;;;;;;10.59;76.17;99385.56;1712134;82;21037;-83
2022/05/24 03:53:37;;;;;;;10.05;7.97;;;;;;;10.68;76.34;99386.17;1714041;82;21507;-81
2022/05/24 03:56:05;;;;;;;9.48;7.28;;;;;;;10.79;76.40;99381.69;1735171;82;21049;-82
2022/05/24 03:58:34;;;;;;;10.78;7.33;;;;;;;10.89;76.39;99387.11;1735227;82;22020;-84
2022/05/24 04:01:02;;;;;;;11.22;8.48;;;;;;;10.95;76.01;99386.08;1735059;81;21072;-84
2022/05/24 04:03:29;;;;;;;11.43;7.60;;;;;;;11.02;75.49;99389.37;1719856;82;20980;-79
2022/05/24 04:05:55;;;;;;;14.25;7.70;;;;;;;11.08;74.66;99384.27;1732923;82;21506;-80
2022/05/24 04:08:26;;;;;;;12.13;8.00;;;;;;;11.13;73.59;99378.91;1710409;81;21009;-79
2022/05/24 04:11:08;;;;;;;9.28;7.00;;;;;;;11.19;72.73;99387.30;1725352;82;21236;-80
2022/05/24 04:13:36;;;;;;;10.80;8.03;;;;;;;11.26;72.26;99387.89;1735485;82;20930;-80
2022/05/24 04:16:04;;;;;;;7.97;6.17;;;;;;;11.32;71.50;99390.86;1734768;82;21034;-78
2022/05/24 04:18:31;;;;;;;10.10;7.20;;;;;;;11.37;70.33;99391.42;1644723;82;21002;-77
2022/05/24 04:20:57;;;;;;;9.35;5.55;;;;;;;11.44;69.74;99397.39;1667914;83;21642;-81
2022/05/24 04:23:25;;;;;;;7.40;6.40;;;;;;;11.50;68.97;99396.88;1667137;83;21145;-84
2022/05/24 04:25:53;;;;;;;9.95;6.12;;;;;;;11.56;68.03;99398.53;1670254;83;20990;-85
2022/05/24 04:28:22;;;;;;;8.60;6.17;;;;;;;11.62;66.59;99398.27;1655002;86;21062;-83
2022/05/24 04:30:49;;;;;;;7.92;5.65;;;;;;;11.69;64.93;99406.12;1663754;83;21118;-85
2022/05/24 04:33:17;;;;;;;6.20;5.45;;;;;;;11.76;64.31;99410.73;1708090;83;21108;-83
2022/05/24 04:35:45;;;;;;;10.28;5.80;;;;;;;11.83;63.20;99407.28;1657603;86;21256;-88
2022/05/24 04:38:12;;;;;;;7.70;5.80;;;;;;;11.92;62.83;99411.61;1674952;83;21518;-86
2022/05/24 04:43:10;;;;;;;8.83;5.28;;;;;;;12.07;58.58;99416.51;1663878;83;21004;-88
2022/05/24 04:45:37;;;;;;;8.50;5.90;;;;;;;12.16;57.26;99408.70;1677504;83;21035;-87
2022/05/24 04:48:06;;;;;;;9.70;5.30;;;;;;;12.25;57.17;99421.92;1681215;83;21065;-91
2022/05/24 04:50:35;;;;;;;5.35;4.60;;;;;;;12.32;56.92;99413.05;1682650;83;20947;-81
2022/05/24 04:53:01;;;;;;;7.55;5.50;;;;;;;12.40;56.01;99413.05;1596342;86;21140;-80
2022/05/24 04:55:28;;;;;;;6.55;5.55;;;;;;;12.48;55.44;99418.71;1672751;83;20943;-77
2022/05/24 04:57:56;;;;;;;5.12;4.55;;;;;;;12.54;54.65;99419.00;1722544;82;21453;-78
2022/05/24 05:00:23;;;;;;;5.95;4.80;;;;;;;12.60;53.47;99426.02;1734181;82;21108;-79
2022/05/24 05:02:50;;;;;;;4.78;3.77;;;;;;;12.68;52.94;99424.13;1733165;81;20964;-80
2022/05/24 05:05:17;;;;;;;5.92;4.70;;;;;;;12.77;52.21;99431.67;1733184;82;20927;-78
2022/05/24 05:07:43;;;;;;;6.87;4.72;;;;;;;12.83;51.67;99423.31;1733755;81;21491;-74
2022/05/24 05:10:15;;;;;;;5.20;4.75;;;;;;;12.90;51.00;99423.05;1738739;81;20963;-76
2022/05/24 05:12:43;;;;;;;5.15;4.67;;;;;;;12.95;51.08;99426.53;1743380;81;21107;-77
2022/05/24 05:15:10;;;;;;;7.28;4.30;;;;;;;13.03;50.88;99427.88;1744626;81;20969;-79
2022/05/24 05:17:37;;;;;;;4.42;4.03;;;;;;;13.09;49.98;99427.59;1733283;82;21465;-81
2022/05/24 05:20:06;;;;;;;5.15;3.98;;;;;;;13.16;50.07;99428.70;1733447;81;21071;-81
2022/05/24 05:22:33;;;;;;;6.60;4.00;;;;;;;13.22;49.32;99430.31;1744158;81;21027;-80
2022/05/24 05:24:59;;;;;;;5.50;3.90;;;;;;;13.27;48.56;99430.30;1734429;81;21166;-81
2022/05/24 05:27:26;;;;;;;7.30;4.47;;;;;;;13.33;48.07;99435.16;1732188;82;21101;-78
2022/05/24 05:32:38;;;;;;;6.17;3.30;;;;;;;13.44;46.13;99432.67;1733449;82;21055;-78
2022/05/24 05:35:07;;;;;;;5.83;4.00;;;;;;;13.52;46.26;99438.31;1728605;82;21483;-81
2022/05/24 05:37:34;;;;;;;4.08;3.67;;;;;;;13.57;44.58;99429.42;1712838;83;21196;-80
2022/05/24 05:40:03;;;;;;;5.72;3.58;;;;;;;13.65;43.82;99436.13;1698357;84;20914;-82
2022/05/24 05:42:31;;;;;;;5.60;4.20;;;;;;;13.70;42.64;99431.52;1698722;84;21133;-78
2022/05/24 05:44:57;;;;;;;5.58;3.67;;;;;;;13.78;42.92;99430.94;1698902;84;21165;-79
2022/05/24 05:47:24;;;;;;;4.95;4.10;;;;;;;13.83;43.14;99432.27;1698011;83;21090;-80
2022/05/24 05:49:50;;;;;;;4.33;3.92;;;;;;;13.88;43.82;99434.95;1698662;84;21392;-79
2022/05/24 05:52:17;;;;;;;6.55;4.15;;;;;;;13.94;44.46;99432.50;1698358;84;21013;-80
2022/05/24 05:54:44;;;;;;;8.80;4.37;;;;;;;14.01;42.20;99427.30;1698641;84;20963;-80
2022/05/24 05:57:12;;;;;;;6.10;3.47;;;;;;;14.06;41.18;99425.92;1672694;84;21046;-79
2022/05/24 05:59:38;;;;;;;4.58;3.98;;;;;;;14.08;41.29;99423.77;1672237;84;21084;-79
2022/05/24 06:02:07;;;;;;;6.08;3.60;;;;;;;14.10;41.07;99429.14;1670293;85;21565;-80
2022/05/24 06:04:34;;;;;;;5.00;3.92;;;;;;;14.15;41.02;99431.04;1670298;86;21099;-77
2022/05/24 06:07:00;;;;;;;4.20;3.47;;;;;;;14.18;41.68;99429.94;1696278;84;21072;-79
2022/05/24 06:09:28;;;;;;;5.60;3.35;;;;;;;14.23;39.52;99436.66;1698560;84;21488;-78
2022/05/24 06:11:56;;;;;;;8.68;3.10;;;;;;;14.29;38.41;99432.81;1702121;83;20997;-81
2022/05/24 06:14:22;;;;;;;5.33;3.42;;;;;;;14.35;38.78;99422.78;1701619;84;21746;-81
2022/05/24 06:16:51;;;;;;;8.35;4.22;;;;;;;14.37;36.94;99422.80;1702094;84;21486;-80
2022/05/24 06:19:18;;;;;;;5.30;3.35;;;;;;;14.42;37.94;99427.91;1701899;84;21646;-79
2022/05/24 06:21:46;;;;;;;6.85;3.55;;;;;;;14.45;37.69;99434.91;1716225;83;21076;-80
2022/05/24 06:24:14;;;;;;;4.53;3.00;;;;;;;14.50;35.48;99430.02;1718341;83;21048;-82
2022/05/24 06:26:40;;;;;;;2.90;2.55;;;;;;;14.57;34.86;99422.40;1718404;83;21346;-84
2022/05/24 06:29:07;;;;;;;4.22;2.22;;;;;;;14.62;33.27;99442.12;1711363;83;21057;-78
2022/05/24 06:31:33;;;;;;;5.45;2.52;;;;;;;14.69;33.60;99425.53;1702223;84;21037;-83
2022/05/24 06:34:00;;;;;;;3.42;2.50;;;;;;;14.75;33.75;99417.10;1710244;84;21052;-86
2022/05/24 06:36:26;;;;;;;4.00;2.55;;;;;;;14.82;33.86;99444.64;1716360;83;21012;-86
2022/05/24 06:38:53;;;;;;;3.80;2.70;;;;;;;14.87;33.20;99437.02;1715868;83;21051;-85
2022/05/24 06:41:21;;;;;;;3.22;2.35;;;;;;;14.92;33.81;99426.69;1716144;82;21104;-84
2022/05/24 06:43:47;;;;;;;2.98;2.58;;;;;;;14.95;33.80;99418.83;1719488;83;21098;-85
2022/05/24 06:46:14;;;;;;;2.87;2.45;;;;;;;15.02;34.05;99432.83;1664974;86;21004;-83
2022/05/24 06:48:42;;;;;;;2.50;2.30;;;;;;;15.08;33.09;99449.30;1713589;82;21000;-83
2022/05/24 06:51:16;;;;;;;4.45;2.70;;;;;;;15.08;32.90;99441.17;1716826;83;21093;-80
2022/05/24 06:53:45;;;;;;;2.60;2.40;;;;;;;15.08;33.40;99435.75;1715070;83;21137;-84
2022/05/24 06:56:11;;;;;;;3.00;2.67;;;;;;;15.12;33.59;99428.67;1665010;86;21056;-85
2022/05/24 06:58:38;;;;;;;8.35;3.87;;;;;;;15.16;33.54;99431.61;1681023;83;21040;-87
2022/05/24 07:03:51;;;;;;;2.75;2.55;;;;;;;15.25;33.54;99433.41;1690110;83;21104;-85
2022/05/24 07:06:19;;;;;;;2.27;2.08;;;;;;;15.33;32.09;99423.05;1670576;85;21548;-86
2022/05/24 07:08:47;;;;;;;5.12;2.22;;;;;;;15.38;31.71;99436.55;1697358;83;20979;-83
2022/05/24 07:11:15;;;;;;;4.45;2.47;;;;;;;15.42;32.23;99443.81;1699588;83;21007;-81
2022/05/24 07:13:42;;;;;;;4.47;3.30;;;;;;;15.49;32.36;99438.06;1702546;83;21513;-82
2022/05/24 07:16:10;;;;;;;3.50;2.37;;;;;;;15.55;32.31;99444.51;1699086;84;21168;-82
2022/05/24 07:18:37;;;;;;;3.72;2.65;;;;;;;15.59;32.25;99451.50;1676431;84;21052;-81
2022/05/24 07:21:05;;;;;;;4.42;2.45;;;;;;;15.61;32.30;99439.30;1668891;85;21562;-82
2022/05/24 07:23:37;;;;;;;2.92;2.58;;;;;;;15.64;31.90;99452.26;1667364;85;21026;-82
2022/05/24 07:26:18;;;;;;;6.58;2.35;;;;;;;15.68;31.91;99447.87;1668145;85;21074;-83
2022/05/24 07:28:45;;;;;;;2.70;2.50;;;;;;;15.70;31.72;99449.76;1681731;84;21286;-80
2022/05/24 07:31:11;;;;;;;3.17;2.62;;;;;;;15.76;31.28;99446.44;1698680;84;21044;-83
2022/05/24 07:33:39;;;;;;;6.37;2.60;;;;;;;15.81;31.54;99449.09;1673920;84;21509;-79
2022/05/24 07:36:07;;;;;;;3.95;2.87;;;;;;;15.86;31.51;99456.36;1678164;84;21532;-75
2022/05/24 07:38:34;;;;;;;6.62;2.95;;;;;;;15.94;31.54;99459.77;1669978;85;21000;-83
2022/05/24 07:46:18;;;;;;;4.53;2.55;;;;;;;16.08;31.29;99449.28;1675384;84;21140;-82
2022/05/24 07:48:44;;;;;;;3.17;2.17;;;;;;;16.17;30.64;99433.69;1669843;83;20976;-86
2022/05/24 07:51:11;;;;;;;5.17;2.98;;;;;;;16.24;30.05;99442.29;1694356;83;21012;-84
2022/05/24 07:53:38;;;;;;;3.52;2.60;;;;;;;16.28;30.04;99441.95;1650882;84;21118;-82
2022/05/24 07:56:05;;;;;;;2.87;2.42;;;;;;;16.30;30.00;99448.72;1691957;84;21472;-84
2022/05/24 07:58:32;;;;;;;2.42;2.22;;;;;;;16.33;30.11;99437.27;1671972;85;21027;-83
2022/05/24 08:00:59;;;;;;;5.80;2.35;;;;;;;16.41;30.35;99441.22;1698095;84;21060;-82
2022/05/24 08:03:26;;;;;;;2.52;2.08;;;;;;;16.47;30.36;99441.41;1702806;83;21630;-75
2022/05/24 08:05:52;;;;;;;10.28;2.62;;;;;;;16.53;30.45;99441.05;1693165;84;21722;-82
2022/05/24 08:08:19;;;;;;;2.85;2.45;;;;;;;16.61;30.54;99451.00;1698120;84;21113;-85
2022/05/24 08:10:47;;;;;;;2.95;1.90;;;;;;;16.66;30.46;99446.30;1698729;84;21010;-84
2022/05/24 08:13:16;;;;;;;3.10;2.17;;;;;;;16.73;30.64;99439.14;1696121;84;21556;-78
2022/05/24 08:15:42;;;;;;;4.37;2.30;;;;;;;16.78;30.54;99428.20;1699204;84;21074;-83
2022/05/24 08:18:10;;;;;;;2.55;2.15;;;;;;;16.83;30.58;99434.36;1698301;84;21124;-81
2022/05/24 08:20:37;;;;;;;3.77;2.50;;;;;;;16.88;30.19;99422.02;1698774;84;21057;-81
2022/05/24 08:23:05;;;;;;;2.42;2.22;;;;;;;16.93;30.28;99427.37;1698635;84;21003;-79
2022/05/24 08:25:33;;;;;;;3.35;1.95;;;;;;;16.97;30.00;99431.13;1699238;84;21042;-89
2022/05/24 08:28:02;;;;;;;3.92;2.45;;;;;;;17.00;29.95;99438.67;1670801;84;21090;-87
2022/05/24 08:30:30;;;;;;;2.45;2.25;;;;;;;17.07;30.19;99430.14;1674787;84;21197;-82
2022/05/24 08:32:57;;;;;;;2.17;1.98;;;;;;;17.15;30.22;99431.36;1697708;84;21582;-83
2022/05/24 08:35:24;;;;;;;2.58;2.37;;;;;;;17.22;30.33;99434.47;1689983;84;22288;-81
2022/05/24 08:37:50;;;;;;;3.02;2.22;;;;;;;17.24;30.29;99439.07;1696469;84;21019;-83
2022/05/24 08:40:18;;;;;;;4.12;2.62;;;;;;;17.28;29.90;99450.95;1670496;86;21037;-87
2022/05/24 08:43:20;;;;;;;3.77;2.47;;;;;;;17.32;29.87;99432.94;1680363;84;21129;-88
2022/05/24 08:48:52;;;;;;;4.12;2.42;;;;;;;17.44;30.04;99435.43;1670496;84;20982;-94
2022/05/24 08:51:25;;;;;;;4.72;1.80;;;;;;;17.50;29.89;99439.41;1694819;84;21550;-86
2022/05/24 08:53:53;;;;;;;3.20;2.15;;;;;;;17.56;30.38;99443.08;1665635;86;21687;-88
2022/05/24 08:56:25;;;;;;;4.03;2.42;;;;;;;17.65;29.42;99461.69;1689447;85;21148;-83
2022/05/24 08:59:03;;;;;;;3.00;1.80;;;;;;;17.68;29.27;99436.63;1664790;85;21024;-85
2022/05/24 09:01:34;;;;;;;2.35;2.02;;;;;;;17.69;29.56;99434.16;1664592;84;21066;-77
2022/05/24 09:04:05;;;;;;;4.12;2.27;;;;;;;17.72;29.25;99440.90;1653727;85;21534;-88
2022/05/24 09:06:40;;;;;;;2.22;2.00;;;;;;;17.67;29.18;99436.37;1670274;84;21590;-84
2022/05/24 09:09:40;;;;;;;3.83;2.15;;;;;;;17.70;29.60;99436.30;1685105;84;21697;-86
2022/05/24 09:12:49;;;;;;;3.50;2.17;;;;;;;17.76;29.63;99435.09;1688501;84;20966;-84
2022/05/24 09:16:18;;;;;;;5.28;1.98;;;;;;;17.84;29.37;99450.73;1686645;84;21543;-83
2022/05/24 09:19:17;;;;;;;3.92;1.92;;;;;;;17.91;29.15;99441.59;1686973;84;21067;-85
2022/05/24 09:21:47;;;;;;;1.65;1.55;;;;;;;17.99;29.10;99438.70;1690359;84;21008;-84
2022/05/24 09:24:44;;;;;;;4.55;2.00;;;;;;;18.01;29.11;99438.66;1690084;84;21300;-84
2022/05/24 09:27:18;;;;;;;4.05;2.05;;;;;;;18.05;29.10;99445.66;1688072;84;21065;-85
2022/05/24 09:30:03;;;;;;;;;;;;;;;18.11;28.89;99430.83;1693971;84;21563;-82
2022/05/24 09:32:40;;;;;;;3.45;2.05;;;;;;;18.15;28.91;99434.55;1691610;84;20179;-83
2022/05/24 09:35:18;;;;;;;2.87;1.90;;;;;;;18.17;29.07;99428.25;1691802;84;21114;-82
2022/05/24 09:38:07;;;;;;;2.08;1.90;;;;;;;18.17;29.17;99425.53;1688146;84;21108;-77
2022/05/24 09:40:58;;;;;;;2.60;2.30;;;;;;;18.18;28.86;99421.67;1651284;84;21724;-77
2022/05/24 09:43:33;;;;;;;2.27;2.08;;;;;;;18.21;29.38;99415.09;1691529;84;21065;-77
2022/05/24 09:46:19;;;;;;;2.45;2.25;;;;;;;18.30;29.58;99418.69;1689777;84;20908;-83
2022/05/24 09:49:04;;;;;;;2.60;1.80;;;;;;;18.44;29.48;99426.81;1688878;84;21044;-83
2022/05/24 09:51:41;;;;;;;4.30;1.85;;;;;;;18.57;29.49;99425.17;1691656;84;21077;-82
2022/05/24 09:54:16;;;;;;;3.45;2.10;;;;;;;18.58;29.32;99416.69;1691650;84;20984;-78
2022/05/24 09:57:00;;;;;;;2.42;2.22;;;;;;;18.58;29.53;99422.14;1689032;84;21539;-81
2022/05/24 09:59:28;;;;;;;2.67;2.12;;;;;;;18.59;29.60;99421.03;1693863;83;21298;-82
2022/05/24 10:01:54;;;;;;;2.17;1.98;;;;;;;18.56;29.99;99417.55;1685997;85;21115;-85
2022/05/24 10:04:36;;;;;;;3.62;2.72;;;;;;;18.58;29.73;99419.97;1686580;85;21147;-87
2022/05/24 10:07:23;;;;;;;2.75;2.55;;;;;;;18.58;30.14;99419.97;1685317;85;21582;-90
2022/05/24 10:10:12;;;;;;;4.55;2.08;;;;;;;18.56;29.93;99425.72;1682578;85;20994;-83
2022/05/24 10:13:08;;;;;;;5.97;2.47;;;;;;;18.53;29.68;99417.34;1687530;85;21572;-81
2022/05/24 10:15:44;;;;;;;2.22;1.57;;;;;;;18.61;29.70;99424.80;1687525;85;21535;-82
2022/05/24 10:18:35;;;;;;;3.80;2.22;;;;;;;18.77;29.51;99408.88;1702363;83;21171;-90
2022/05/24 10:21:32;;;;;;;2.25;2.02;;;;;;;18.88;29.27;99412.42;1683106;83;21054;-79
2022/05/24 10:24:36;;;;;;;7.10;3.02;;;;;;;19.01;29.45;99406.63;1674258;85;20995;-78
2022/05/24 10:27:13;;;;;;;2.35;2.15;;;;;;;19.18;29.18;99410.25;1687314;85;21086;-75
2022/05/24 10:29:47;;;;;;;5.00;2.77;;;;;;;19.29;28.29;99408.06;1670578;85;21107;-74
2022/05/24 10:39:14;;;;;;;3.62;2.08;;;;;;;19.46;29.69;99419.65;1652016;85;21104;-68
2022/05/24 10:41:52;;;;;;;3.62;3.33;;;;;;;19.59;29.15;99407.25;1637872;85;21017;-71
2022/05/24 10:44:39;;;;;;;3.10;2.42;;;;;;;19.55;28.95;99417.20;1684159;85;21046;-75
2022/05/24 10:47:10;;;;;;;4.05;2.47;;;;;;;19.56;29.20;99424.27;1641680;87;21424;-75
2022/05/24 10:49:56;;;;;;;3.65;2.05;;;;;;;19.51;29.20;99423.05;1680855;85;21524;-76
2022/05/24 10:52:37;;;;;;;2.90;1.98;;;;;;;19.46;29.37;99419.09;1632851;87;21114;-76
2022/05/24 10:55:14;;;;;;;2.47;2.27;;;;;;;19.49;29.37;99408.09;1658810;86;21052;-78
2022/05/24 10:57:46;;;;;;;5.03;2.20;;;;;;;19.59;29.28;99402.36;1667482;85;21584;-75
2022/05/24 11:00:16;;;;;;;3.05;2.12;;;;;;;19.69;29.04;99410.25;1702261;83;21143;-73
2022/05/24 11:03:09;;;;;;;2.35;2.15;;;;;;;19.86;28.90;99405.39;1697031;83;21074;-74
2022/05/24 11:05:59;;;;;;;3.30;1.80;;;;;;;19.91;28.38;99404.68;1668945;86;21040;-75
2022/05/24 11:08:35;;;;;;;2.02;1.67;;;;;;;19.82;29.01;99401.13;1669435;86;21136;-73
2022/05/24 11:11:27;;;;;;;2.45;2.00;;;;;;;19.79;29.68;99415.98;1669773;86;21091;-77
2022/05/24 11:14:14;;;;;;;3.87;2.55;;;;;;;19.78;29.76;99420.63;1648962;86;22063;-84
2022/05/24 11:16:47;;;;;;;3.67;1.82;;;;;;;19.74;30.00;99409.30;1647391;85;20979;-80
2022/05/24 11:19:19;;;;;;;6.87;2.37;;;;;;;19.89;30.26;99411.03;1689033;84;20995;-80
2022/05/24 11:22:00;;;;;;;3.65;2.33;;;;;;;20.09;29.85;99415.09;1698898;84;21106;-77
2022/05/24 11:24:52;;;;;;;2.60;2.40;;;;;;;20.25;29.28;99414.84;1684969;84;21519;-79
2022/05/24 11:27:38;;;;;;;2.58;2.22;;;;;;;20.21;29.12;99407.62;1684786;83;21153;-74
2022/05/24 11:30:36;;;;;;;3.35;2.42;;;;;;;20.20;29.24;99416.37;1659750;85;20918;-74
2022/05/24 11:33:09;;;;;;;3.37;2.22;;;;;;;20.33;29.48;99424.22;1652530;85;21621;-73
2022/05/24 11:35:43;;;;;;;2.75;2.40;;;;;;;20.33;29.50;99405.91;1625493;88;21088;-80
2022/05/24 11:38:17;;;;;;;9.00;2.45;;;;;;;20.25;29.75;99420.88;1642427;86;21034;-74
2022/05/24 11:41:17;;;;;;;9.48;2.37;;;;;;;20.16;29.60;99418.69;1654952;85;21604;-75
2022/05/24 11:43:51;;;;;;;4.03;2.15;;;;;;;20.09;29.82;99415.09;1651913;85;21580;-80
2022/05/24 11:46:46;;;;;;;4.00;2.02;;;;;;;20.00;29.98;99424.61;1642801;86;21011;-77
2022/05/24 11:49:22;;;;;;;3.12;2.52;;;;;;;19.96;29.67;99411.91;1629385;87;21334;-80
2022/05/24 11:51:56;;;;;;;4.50;2.20;;;;;;;19.96;29.38;99407.27;1687147;85;21019;-75
2022/05/24 11:54:29;;;;;;;3.85;1.90;;;;;;;20.01;29.56;99413.94;1669521;86;22103;-70
2022/05/24 11:57:10;;;;;;;2.87;2.52;;;;;;;20.00;29.40;99417.78;1676317;85;21014;-68
2022/05/24 11:59:46;;;;;;;2.20;2.00;;;;;;;19.93;29.75;99412.00;1678048;85;20999;-71
2022/05/24 12:07:54;;;;;;;4.35;2.60;;;;;;;19.96;29.84;99417.38;1685981;85;21035;-74
2022/05/24 12:08:01;;;;;;;1.70;1.60;;;;;;;20.01;30.47;99422.13;1686043;85;20999;-72
2022/05/24 12:10:42;;;;;;;1.98;1.82;;;;;;;19.97;30.41;99419.80;1686088;85;20971;-78
2022/05/24 12:13:29;;;;;;;2.72;1.37;;;;;;;20.09;29.85;99436.13;1663102;85;20928;-75
2022/05/24 12:16:03;;;;;;;3.02;1.90;;;;;;;20.26;29.35;99426.58;1660985;85;21031;-82
2022/05/24 12:18:44;;;;;;;2.60;1.40;;;;;;;20.47;28.86;99426.80;1685490;85;21022;-79
2022/05/24 12:21:14;;;;;;;2.17;1.60;;;;;;;20.58;28.74;99426.12;1686198;85;21520;-82
2022/05/24 12:23:44;;;;;;;4.33;1.95;;;;;;;20.93;28.40;99418.70;1683373;85;21012;-78
2022/05/24 12:26:12;;;;;;;1.82;1.60;;;;;;;20.93;28.40;99418.70;1670303;85;20951;-74
2022/05/24 12:28:50;;;;;;;1.65;1.55;;;;;;;21.13;28.12;99410.38;1662595;85;21026;-81
2022/05/24 12:31:25;;;;;;;2.33;2.05;;;;;;;21.12;27.75;99417.77;1685856;84;21015;-77
2022/05/24 12:34:01;;;;;;;1.98;1.70;;;;;;;21.10;28.57;99420.61;1685679;85;21201;-76